sensor_id;sensor_type;location;lat;lon;timestamp;P1;durP1;ratioP1;P2;durP2;ratioP2
12900;SDS011;6518;50.930;5.344;2023-12-20T00:01:01;17.13;;;4.37;;
12900;SDS011;6518;50.930;5.344;2023-12-20T00:03:36;14.13;;;4.40;;
12900;SDS011;6518;50.930;5.344;2023-12-20T00:06:04;13.27;;;4.17;;
12900;SDS011;6518;50.930;5.344;2023-12-20T00:08:35;12.67;;;3.63;;
12900;SDS011;6518;50.930;5.344;2023-12-20T00:11:06;10.30;;;2.93;;
12900;SDS011;6518;50.930;5.344;2023-12-20T00:13:34;14.77;;;3.10;;
12900;SDS011;6518;50.930;5.344;2023-12-20T00:16:03;11.90;;;3.00;;
12900;SDS011;6518;50.930;5.344;2023-12-20T00:18:34;12.03;;;3.03;;
12900;SDS011;6518;50.930;5.344;2023-12-20T00:21:04;12.53;;;2.93;;
12900;SDS011;6518;50.930;5.344;2023-12-20T00:23:31;8.53;;;2.63;;
12900;SDS011;6518;50.930;5.344;2023-12-20T00:25:59;8.23;;;2.30;;
12900;SDS011;6518;50.930;5.344;2023-12-20T00:28:26;12.67;;;3.07;;
12900;SDS011;6518;50.930;5.344;2023-12-20T00:30:53;12.57;;;2.67;;
12900;SDS011;6518;50.930;5.344;2023-12-20T00:33:20;11.20;;;2.33;;
12900;SDS011;6518;50.930;5.344;2023-12-20T00:35:46;19.83;;;3.30;;
12900;SDS011;6518;50.930;5.344;2023-12-20T00:38:13;12.37;;;3.17;;
12900;SDS011;6518;50.930;5.344;2023-12-20T00:40:42;12.33;;;2.67;;
12900;SDS011;6518;50.930;5.344;2023-12-20T00:43:10;11.27;;;2.87;;
12900;SDS011;6518;50.930;5.344;2023-12-20T00:45:37;11.73;;;2.30;;
12900;SDS011;6518;50.930;5.344;2023-12-20T00:48:05;10.97;;;2.07;;
12900;SDS011;6518;50.930;5.344;2023-12-20T00:50:32;14.00;;;2.57;;
12900;SDS011;6518;50.930;5.344;2023-12-20T00:52:59;16.03;;;2.40;;
12900;SDS011;6518;50.930;5.344;2023-12-20T00:55:26;13.40;;;2.40;;
12900;SDS011;6518;50.930;5.344;2023-12-20T00:57:53;8.83;;;2.50;;
12900;SDS011;6518;50.930;5.344;2023-12-20T01:00:21;8.33;;;2.33;;
12900;SDS011;6518;50.930;5.344;2023-12-20T01:02:48;11.60;;;2.07;;
12900;SDS011;6518;50.930;5.344;2023-12-20T01:05:16;10.30;;;2.33;;
12900;SDS011;6518;50.930;5.344;2023-12-20T01:07:44;8.50;;;2.03;;
12900;SDS011;6518;50.930;5.344;2023-12-20T01:10:11;11.00;;;2.27;;
12900;SDS011;6518;50.930;5.344;2023-12-20T01:12:38;12.87;;;2.30;;
12900;SDS011;6518;50.930;5.344;2023-12-20T01:15:05;11.33;;;2.20;;
12900;SDS011;6518;50.930;5.344;2023-12-20T01:17:34;11.83;;;2.83;;
12900;SDS011;6518;50.930;5.344;2023-12-20T01:20:01;11.77;;;2.60;;
12900;SDS011;6518;50.930;5.344;2023-12-20T01:22:28;13.13;;;3.10;;
12900;SDS011;6518;50.930;5.344;2023-12-20T01:24:55;8.47;;;2.47;;
12900;SDS011;6518;50.930;5.344;2023-12-20T01:27:22;9.73;;;2.50;;
12900;SDS011;6518;50.930;5.344;2023-12-20T01:29:49;7.33;;;2.40;;
12900;SDS011;6518;50.930;5.344;2023-12-20T01:32:16;13.70;;;2.43;;
12900;SDS011;6518;50.930;5.344;2023-12-20T01:34:45;13.77;;;3.43;;
12900;SDS011;6518;50.930;5.344;2023-12-20T01:37:13;11.90;;;2.50;;
12900;SDS011;6518;50.930;5.344;2023-12-20T01:39:40;10.97;;;2.53;;
12900;SDS011;6518;50.930;5.344;2023-12-20T01:42:07;10.53;;;2.73;;
12900;SDS011;6518;50.930;5.344;2023-12-20T01:44:34;9.23;;;2.17;;
12900;SDS011;6518;50.930;5.344;2023-12-20T01:47:01;11.43;;;2.93;;
12900;SDS011;6518;50.930;5.344;2023-12-20T01:49:30;10.37;;;2.40;;
12900;SDS011;6518;50.930;5.344;2023-12-20T01:52:01;11.13;;;2.77;;
12900;SDS011;6518;50.930;5.344;2023-12-20T01:54:28;10.90;;;2.53;;
12900;SDS011;6518;50.930;5.344;2023-12-20T01:56:56;14.60;;;3.20;;
12900;SDS011;6518;50.930;5.344;2023-12-20T01:59:23;13.93;;;3.27;;
12900;SDS011;6518;50.930;5.344;2023-12-20T02:01:50;15.83;;;3.57;;
12900;SDS011;6518;50.930;5.344;2023-12-20T02:04:18;10.80;;;2.80;;
12900;SDS011;6518;50.930;5.344;2023-12-20T02:06:45;14.13;;;3.00;;
12900;SDS011;6518;50.930;5.344;2023-12-20T02:09:14;14.50;;;2.97;;
12900;SDS011;6518;50.930;5.344;2023-12-20T02:11:41;9.10;;;3.10;;
12900;SDS011;6518;50.930;5.344;2023-12-20T02:14:09;15.10;;;3.00;;
12900;SDS011;6518;50.930;5.344;2023-12-20T02:16:36;10.57;;;3.07;;
12900;SDS011;6518;50.930;5.344;2023-12-20T02:19:03;10.53;;;2.60;;
12900;SDS011;6518;50.930;5.344;2023-12-20T02:21:35;9.77;;;2.77;;
12900;SDS011;6518;50.930;5.344;2023-12-20T02:24:02;10.73;;;2.70;;
12900;SDS011;6518;50.930;5.344;2023-12-20T02:26:30;6.97;;;2.63;;
12900;SDS011;6518;50.930;5.344;2023-12-20T02:28:58;13.47;;;3.13;;
12900;SDS011;6518;50.930;5.344;2023-12-20T02:31:26;9.77;;;2.83;;
12900;SDS011;6518;50.930;5.344;2023-12-20T02:33:53;13.87;;;3.17;;
12900;SDS011;6518;50.930;5.344;2023-12-20T02:36:19;11.73;;;3.37;;
12900;SDS011;6518;50.930;5.344;2023-12-20T02:38:48;13.43;;;3.30;;
12900;SDS011;6518;50.930;5.344;2023-12-20T02:41:15;14.40;;;3.43;;
12900;SDS011;6518;50.930;5.344;2023-12-20T02:43:43;12.17;;;3.10;;
12900;SDS011;6518;50.930;5.344;2023-12-20T02:46:10;15.53;;;4.07;;
12900;SDS011;6518;50.930;5.344;2023-12-20T02:48:38;11.80;;;2.97;;
12900;SDS011;6518;50.930;5.344;2023-12-20T02:51:06;16.93;;;3.30;;
12900;SDS011;6518;50.930;5.344;2023-12-20T02:53:35;11.67;;;3.20;;
12900;SDS011;6518;50.930;5.344;2023-12-20T02:56:04;9.00;;;2.80;;
12900;SDS011;6518;50.930;5.344;2023-12-20T02:58:31;13.40;;;2.83;;
12900;SDS011;6518;50.930;5.344;2023-12-20T03:00:58;11.70;;;3.00;;
12900;SDS011;6518;50.930;5.344;2023-12-20T03:03:25;12.73;;;2.83;;
12900;SDS011;6518;50.930;5.344;2023-12-20T03:05:52;12.70;;;2.77;;
12900;SDS011;6518;50.930;5.344;2023-12-20T03:08:19;12.17;;;3.37;;
12900;SDS011;6518;50.930;5.344;2023-12-20T03:10:46;14.63;;;3.33;;
12900;SDS011;6518;50.930;5.344;2023-12-20T03:13:14;15.20;;;3.43;;
12900;SDS011;6518;50.930;5.344;2023-12-20T03:15:41;14.80;;;2.97;;
12900;SDS011;6518;50.930;5.344;2023-12-20T03:18:08;8.77;;;2.90;;
12900;SDS011;6518;50.930;5.344;2023-12-20T03:20:35;9.60;;;2.97;;
12900;SDS011;6518;50.930;5.344;2023-12-20T03:23:02;14.07;;;3.50;;
12900;SDS011;6518;50.930;5.344;2023-12-20T03:25:30;14.77;;;3.73;;
12900;SDS011;6518;50.930;5.344;2023-12-20T03:27:57;11.17;;;3.30;;
12900;SDS011;6518;50.930;5.344;2023-12-20T03:30:25;12.40;;;3.30;;
12900;SDS011;6518;50.930;5.344;2023-12-20T03:32:52;11.57;;;3.43;;
12900;SDS011;6518;50.930;5.344;2023-12-20T03:35:19;13.60;;;4.20;;
12900;SDS011;6518;50.930;5.344;2023-12-20T03:37:46;9.80;;;3.07;;
12900;SDS011;6518;50.930;5.344;2023-12-20T03:40:13;15.60;;;3.17;;
12900;SDS011;6518;50.930;5.344;2023-12-20T03:42:40;11.73;;;3.73;;
12900;SDS011;6518;50.930;5.344;2023-12-20T03:45:07;11.13;;;3.67;;
12900;SDS011;6518;50.930;5.344;2023-12-20T03:47:36;12.70;;;4.00;;
12900;SDS011;6518;50.930;5.344;2023-12-20T03:50:04;12.63;;;3.50;;
12900;SDS011;6518;50.930;5.344;2023-12-20T03:52:31;11.37;;;3.47;;
12900;SDS011;6518;50.930;5.344;2023-12-20T03:54:58;12.33;;;4.10;;
12900;SDS011;6518;50.930;5.344;2023-12-20T03:57:25;15.97;;;3.80;;
12900;SDS011;6518;50.930;5.344;2023-12-20T03:59:52;14.10;;;3.53;;
12900;SDS011;6518;50.930;5.344;2023-12-20T04:02:19;17.80;;;4.60;;
12900;SDS011;6518;50.930;5.344;2023-12-20T04:04:47;9.47;;;3.10;;
12900;SDS011;6518;50.930;5.344;2023-12-20T04:07:14;14.97;;;3.80;;
12900;SDS011;6518;50.930;5.344;2023-12-20T04:09:41;10.60;;;2.93;;
12900;SDS011;6518;50.930;5.344;2023-12-20T04:12:08;11.87;;;3.37;;
12900;SDS011;6518;50.930;5.344;2023-12-20T04:14:35;17.33;;;4.10;;
12900;SDS011;6518;50.930;5.344;2023-12-20T04:17:02;19.27;;;4.30;;
12900;SDS011;6518;50.930;5.344;2023-12-20T04:19:29;15.53;;;3.60;;
12900;SDS011;6518;50.930;5.344;2023-12-20T04:21:57;15.40;;;3.60;;
12900;SDS011;6518;50.930;5.344;2023-12-20T04:24:24;18.47;;;3.77;;
12900;SDS011;6518;50.930;5.344;2023-12-20T04:26:51;15.37;;;3.27;;
12900;SDS011;6518;50.930;5.344;2023-12-20T04:29:18;11.40;;;3.27;;
12900;SDS011;6518;50.930;5.344;2023-12-20T04:31:45;10.87;;;3.10;;
12900;SDS011;6518;50.930;5.344;2023-12-20T04:34:12;12.23;;;3.37;;
12900;SDS011;6518;50.930;5.344;2023-12-20T04:36:39;18.87;;;3.83;;
12900;SDS011;6518;50.930;5.344;2023-12-20T04:39:08;13.87;;;3.40;;
12900;SDS011;6518;50.930;5.344;2023-12-20T04:41:35;18.97;;;3.47;;
12900;SDS011;6518;50.930;5.344;2023-12-20T04:44:02;14.87;;;3.70;;
12900;SDS011;6518;50.930;5.344;2023-12-20T04:46:29;14.27;;;3.90;;
12900;SDS011;6518;50.930;5.344;2023-12-20T04:48:56;11.03;;;3.40;;
12900;SDS011;6518;50.930;5.344;2023-12-20T04:51:22;13.83;;;3.50;;
12900;SDS011;6518;50.930;5.344;2023-12-20T04:53:49;15.10;;;3.40;;
12900;SDS011;6518;50.930;5.344;2023-12-20T04:56:18;13.70;;;3.70;;
12900;SDS011;6518;50.930;5.344;2023-12-20T04:58:45;14.03;;;4.30;;
12900;SDS011;6518;50.930;5.344;2023-12-20T05:01:12;12.07;;;3.83;;
12900;SDS011;6518;50.930;5.344;2023-12-20T05:03:39;12.83;;;4.37;;
12900;SDS011;6518;50.930;5.344;2023-12-20T05:06:06;17.47;;;4.30;;
12900;SDS011;6518;50.930;5.344;2023-12-20T05:08:33;12.47;;;4.17;;
12900;SDS011;6518;50.930;5.344;2023-12-20T05:11:00;11.53;;;3.70;;
12900;SDS011;6518;50.930;5.344;2023-12-20T05:13:28;13.87;;;4.40;;
12900;SDS011;6518;50.930;5.344;2023-12-20T05:15:55;12.53;;;4.23;;
12900;SDS011;6518;50.930;5.344;2023-12-20T05:18:22;17.13;;;4.60;;
12900;SDS011;6518;50.930;5.344;2023-12-20T05:20:49;17.43;;;4.50;;
12900;SDS011;6518;50.930;5.344;2023-12-20T05:23:17;11.53;;;3.90;;
12900;SDS011;6518;50.930;5.344;2023-12-20T05:25:45;11.63;;;4.47;;
12900;SDS011;6518;50.930;5.344;2023-12-20T05:28:12;16.63;;;5.20;;
12900;SDS011;6518;50.930;5.344;2023-12-20T05:30:40;17.53;;;5.40;;
12900;SDS011;6518;50.930;5.344;2023-12-20T05:33:07;13.97;;;4.60;;
12900;SDS011;6518;50.930;5.344;2023-12-20T05:35:34;13.67;;;4.77;;
12900;SDS011;6518;50.930;5.344;2023-12-20T05:38:01;14.60;;;4.73;;
12900;SDS011;6518;50.930;5.344;2023-12-20T05:40:28;27.23;;;5.20;;
12900;SDS011;6518;50.930;5.344;2023-12-20T05:42:55;13.93;;;4.47;;
12900;SDS011;6518;50.930;5.344;2023-12-20T05:45:22;11.60;;;4.53;;
12900;SDS011;6518;50.930;5.344;2023-12-20T05:47:50;16.30;;;4.63;;
12900;SDS011;6518;50.930;5.344;2023-12-20T05:50:17;20.10;;;5.10;;
12900;SDS011;6518;50.930;5.344;2023-12-20T05:52:44;16.40;;;4.80;;
12900;SDS011;6518;50.930;5.344;2023-12-20T05:55:11;14.00;;;4.80;;
12900;SDS011;6518;50.930;5.344;2023-12-20T05:57:38;20.17;;;4.87;;
12900;SDS011;6518;50.930;5.344;2023-12-20T06:00:07;17.63;;;4.00;;
12900;SDS011;6518;50.930;5.344;2023-12-20T06:02:35;13.60;;;4.63;;
12900;SDS011;6518;50.930;5.344;2023-12-20T06:05:05;17.97;;;4.47;;
12900;SDS011;6518;50.930;5.344;2023-12-20T06:07:33;16.63;;;4.20;;
12900;SDS011;6518;50.930;5.344;2023-12-20T06:10:00;19.30;;;4.73;;
12900;SDS011;6518;50.930;5.344;2023-12-20T06:12:28;10.17;;;4.20;;
12900;SDS011;6518;50.930;5.344;2023-12-20T06:14:57;15.53;;;4.30;;
12900;SDS011;6518;50.930;5.344;2023-12-20T06:17:24;15.87;;;5.17;;
12900;SDS011;6518;50.930;5.344;2023-12-20T06:19:51;16.83;;;4.30;;
12900;SDS011;6518;50.930;5.344;2023-12-20T06:22:19;11.80;;;4.17;;
12900;SDS011;6518;50.930;5.344;2023-12-20T06:24:46;15.57;;;4.60;;
12900;SDS011;6518;50.930;5.344;2023-12-20T06:27:13;15.60;;;4.43;;
12900;SDS011;6518;50.930;5.344;2023-12-20T06:29:40;14.70;;;4.87;;
12900;SDS011;6518;50.930;5.344;2023-12-20T06:32:09;16.13;;;5.10;;
12900;SDS011;6518;50.930;5.344;2023-12-20T06:34:36;13.67;;;4.13;;
12900;SDS011;6518;50.930;5.344;2023-12-20T06:37:04;19.43;;;5.10;;
12900;SDS011;6518;50.930;5.344;2023-12-20T06:39:32;14.90;;;4.87;;
12900;SDS011;6518;50.930;5.344;2023-12-20T06:42:00;19.50;;;4.93;;
12900;SDS011;6518;50.930;5.344;2023-12-20T06:44:28;12.57;;;4.87;;
12900;SDS011;6518;50.930;5.344;2023-12-20T06:46:56;17.90;;;4.93;;
12900;SDS011;6518;50.930;5.344;2023-12-20T06:49:24;13.13;;;4.77;;
12900;SDS011;6518;50.930;5.344;2023-12-20T06:51:51;12.90;;;4.63;;
12900;SDS011;6518;50.930;5.344;2023-12-20T06:54:21;11.67;;;4.60;;
12900;SDS011;6518;50.930;5.344;2023-12-20T06:56:50;15.83;;;4.60;;
12900;SDS011;6518;50.930;5.344;2023-12-20T06:59:17;16.40;;;4.60;;
12900;SDS011;6518;50.930;5.344;2023-12-20T07:01:47;15.97;;;4.80;;
12900;SDS011;6518;50.930;5.344;2023-12-20T07:04:14;18.20;;;5.13;;
12900;SDS011;6518;50.930;5.344;2023-12-20T07:06:41;15.30;;;4.47;;
12900;SDS011;6518;50.930;5.344;2023-12-20T07:09:09;17.30;;;5.07;;
12900;SDS011;6518;50.930;5.344;2023-12-20T07:11:38;14.23;;;4.73;;
12900;SDS011;6518;50.930;5.344;2023-12-20T07:14:06;16.07;;;4.50;;
12900;SDS011;6518;50.930;5.344;2023-12-20T07:16:33;13.40;;;4.13;;
12900;SDS011;6518;50.930;5.344;2023-12-20T07:19:01;13.90;;;4.17;;
12900;SDS011;6518;50.930;5.344;2023-12-20T07:21:28;13.30;;;4.10;;
12900;SDS011;6518;50.930;5.344;2023-12-20T07:23:55;15.80;;;4.70;;
12900;SDS011;6518;50.930;5.344;2023-12-20T07:26:22;14.73;;;4.57;;
12900;SDS011;6518;50.930;5.344;2023-12-20T07:28:49;14.90;;;4.67;;
12900;SDS011;6518;50.930;5.344;2023-12-20T07:31:17;20.67;;;4.57;;
12900;SDS011;6518;50.930;5.344;2023-12-20T07:33:45;13.47;;;4.50;;
12900;SDS011;6518;50.930;5.344;2023-12-20T07:36:14;21.53;;;5.53;;
12900;SDS011;6518;50.930;5.344;2023-12-20T07:38:40;13.40;;;4.27;;
12900;SDS011;6518;50.930;5.344;2023-12-20T07:41:09;14.57;;;4.50;;
12900;SDS011;6518;50.930;5.344;2023-12-20T07:43:36;18.13;;;5.03;;
12900;SDS011;6518;50.930;5.344;2023-12-20T07:46:04;16.27;;;5.00;;
12900;SDS011;6518;50.930;5.344;2023-12-20T07:48:33;14.13;;;4.57;;
12900;SDS011;6518;50.930;5.344;2023-12-20T07:51:02;20.00;;;5.17;;
12900;SDS011;6518;50.930;5.344;2023-12-20T07:53:31;12.43;;;4.37;;
12900;SDS011;6518;50.930;5.344;2023-12-20T07:55:58;16.10;;;4.57;;
12900;SDS011;6518;50.930;5.344;2023-12-20T07:58:25;13.97;;;4.07;;
12900;SDS011;6518;50.930;5.344;2023-12-20T08:00:52;16.50;;;4.80;;
12900;SDS011;6518;50.930;5.344;2023-12-20T08:03:19;15.70;;;5.20;;
12900;SDS011;6518;50.930;5.344;2023-12-20T08:05:48;17.83;;;5.47;;
12900;SDS011;6518;50.930;5.344;2023-12-20T08:08:15;19.80;;;9.43;;
12900;SDS011;6518;50.930;5.344;2023-12-20T08:10:42;11.83;;;4.13;;
12900;SDS011;6518;50.930;5.344;2023-12-20T08:13:10;13.50;;;4.30;;
12900;SDS011;6518;50.930;5.344;2023-12-20T08:15:37;16.43;;;4.40;;
12900;SDS011;6518;50.930;5.344;2023-12-20T08:18:05;19.83;;;4.87;;
12900;SDS011;6518;50.930;5.344;2023-12-20T08:20:36;16.97;;;4.33;;
12900;SDS011;6518;50.930;5.344;2023-12-20T08:23:04;17.33;;;4.83;;
12900;SDS011;6518;50.930;5.344;2023-12-20T08:25:32;13.87;;;3.93;;
12900;SDS011;6518;50.930;5.344;2023-12-20T08:27:59;12.97;;;3.53;;
12900;SDS011;6518;50.930;5.344;2023-12-20T08:30:27;18.77;;;4.30;;
12900;SDS011;6518;50.930;5.344;2023-12-20T08:32:54;13.63;;;3.67;;
12900;SDS011;6518;50.930;5.344;2023-12-20T08:35:21;17.80;;;3.07;;
12900;SDS011;6518;50.930;5.344;2023-12-20T08:37:49;11.97;;;3.37;;
12900;SDS011;6518;50.930;5.344;2023-12-20T08:40:17;13.60;;;3.40;;
12900;SDS011;6518;50.930;5.344;2023-12-20T08:42:45;10.57;;;2.80;;
12900;SDS011;6518;50.930;5.344;2023-12-20T08:45:12;10.87;;;3.80;;
12900;SDS011;6518;50.930;5.344;2023-12-20T08:47:39;11.40;;;3.57;;
12900;SDS011;6518;50.930;5.344;2023-12-20T08:50:06;15.70;;;4.07;;
12900;SDS011;6518;50.930;5.344;2023-12-20T08:52:34;16.13;;;3.70;;
12900;SDS011;6518;50.930;5.344;2023-12-20T08:55:00;12.13;;;3.50;;
12900;SDS011;6518;50.930;5.344;2023-12-20T08:57:29;13.20;;;2.97;;
12900;SDS011;6518;50.930;5.344;2023-12-20T08:59:57;12.60;;;3.53;;
12900;SDS011;6518;50.930;5.344;2023-12-20T09:02:24;17.50;;;3.60;;
12900;SDS011;6518;50.930;5.344;2023-12-20T09:04:51;15.23;;;3.57;;
12900;SDS011;6518;50.930;5.344;2023-12-20T09:07:21;20.23;;;3.50;;
12900;SDS011;6518;50.930;5.344;2023-12-20T09:09:49;14.73;;;3.50;;
12900;SDS011;6518;50.930;5.344;2023-12-20T09:12:17;11.00;;;3.50;;
12900;SDS011;6518;50.930;5.344;2023-12-20T09:14:45;15.63;;;3.40;;
12900;SDS011;6518;50.930;5.344;2023-12-20T09:17:12;13.70;;;3.97;;
12900;SDS011;6518;50.930;5.344;2023-12-20T09:19:39;9.57;;;3.50;;
12900;SDS011;6518;50.930;5.344;2023-12-20T09:22:06;15.93;;;3.53;;
12900;SDS011;6518;50.930;5.344;2023-12-20T09:24:34;16.37;;;4.20;;
12900;SDS011;6518;50.930;5.344;2023-12-20T09:27:01;13.27;;;3.40;;
12900;SDS011;6518;50.930;5.344;2023-12-20T09:29:28;12.37;;;3.63;;
12900;SDS011;6518;50.930;5.344;2023-12-20T09:31:57;15.20;;;3.97;;
12900;SDS011;6518;50.930;5.344;2023-12-20T09:34:24;11.70;;;3.30;;
12900;SDS011;6518;50.930;5.344;2023-12-20T09:36:52;14.27;;;3.40;;
12900;SDS011;6518;50.930;5.344;2023-12-20T09:39:19;12.13;;;3.30;;
12900;SDS011;6518;50.930;5.344;2023-12-20T09:41:49;11.97;;;3.77;;
12900;SDS011;6518;50.930;5.344;2023-12-20T09:44:27;13.37;;;3.70;;
12900;SDS011;6518;50.930;5.344;2023-12-20T09:46:55;11.43;;;3.00;;
12900;SDS011;6518;50.930;5.344;2023-12-20T09:49:24;10.73;;;3.13;;
12900;SDS011;6518;50.930;5.344;2023-12-20T09:51:53;19.40;;;3.43;;
12900;SDS011;6518;50.930;5.344;2023-12-20T09:54:22;11.67;;;3.20;;
12900;SDS011;6518;50.930;5.344;2023-12-20T09:56:50;12.40;;;2.87;;
12900;SDS011;6518;50.930;5.344;2023-12-20T09:59:17;7.87;;;3.10;;
12900;SDS011;6518;50.930;5.344;2023-12-20T10:01:44;10.50;;;2.80;;
12900;SDS011;6518;50.930;5.344;2023-12-20T10:04:13;18.37;;;3.30;;
12900;SDS011;6518;50.930;5.344;2023-12-20T10:06:40;15.77;;;3.20;;
12900;SDS011;6518;50.930;5.344;2023-12-20T10:09:07;19.57;;;3.23;;
12900;SDS011;6518;50.930;5.344;2023-12-20T10:11:35;11.53;;;3.03;;
12900;SDS011;6518;50.930;5.344;2023-12-20T10:14:03;13.23;;;3.47;;
12900;SDS011;6518;50.930;5.344;2023-12-20T10:16:31;11.60;;;2.90;;
12900;SDS011;6518;50.930;5.344;2023-12-20T10:18:59;14.10;;;3.57;;
12900;SDS011;6518;50.930;5.344;2023-12-20T10:21:28;14.90;;;3.03;;
12900;SDS011;6518;50.930;5.344;2023-12-20T10:23:55;10.10;;;2.90;;
12900;SDS011;6518;50.930;5.344;2023-12-20T10:26:24;11.80;;;2.50;;
12900;SDS011;6518;50.930;5.344;2023-12-20T10:28:53;13.00;;;3.53;;
12900;SDS011;6518;50.930;5.344;2023-12-20T10:31:30;13.10;;;3.17;;
12900;SDS011;6518;50.930;5.344;2023-12-20T10:33:58;13.53;;;3.00;;
12900;SDS011;6518;50.930;5.344;2023-12-20T10:36:27;16.20;;;3.00;;
12900;SDS011;6518;50.930;5.344;2023-12-20T10:38:56;8.73;;;2.60;;
12900;SDS011;6518;50.930;5.344;2023-12-20T10:41:25;13.93;;;3.70;;
12900;SDS011;6518;50.930;5.344;2023-12-20T10:43:55;13.67;;;2.87;;
12900;SDS011;6518;50.930;5.344;2023-12-20T10:46:24;13.83;;;3.03;;
12900;SDS011;6518;50.930;5.344;2023-12-20T10:48:54;14.07;;;3.10;;
12900;SDS011;6518;50.930;5.344;2023-12-20T10:51:21;7.30;;;2.67;;
12900;SDS011;6518;50.930;5.344;2023-12-20T10:53:53;8.87;;;2.70;;
12900;SDS011;6518;50.930;5.344;2023-12-20T10:56:21;10.40;;;3.47;;
12900;SDS011;6518;50.930;5.344;2023-12-20T10:58:49;10.30;;;3.17;;
12900;SDS011;6518;50.930;5.344;2023-12-20T11:01:16;15.77;;;3.20;;
12900;SDS011;6518;50.930;5.344;2023-12-20T11:03:47;13.23;;;2.60;;
12900;SDS011;6518;50.930;5.344;2023-12-20T11:06:19;10.43;;;3.17;;
12900;SDS011;6518;50.930;5.344;2023-12-20T11:08:58;13.43;;;3.27;;
12900;SDS011;6518;50.930;5.344;2023-12-20T11:11:35;13.73;;;2.97;;
12900;SDS011;6518;50.930;5.344;2023-12-20T11:14:06;10.53;;;3.03;;
12900;SDS011;6518;50.930;5.344;2023-12-20T11:16:39;10.03;;;2.73;;
12900;SDS011;6518;50.930;5.344;2023-12-20T11:19:07;11.03;;;3.57;;
12900;SDS011;6518;50.930;5.344;2023-12-20T11:21:39;15.83;;;3.63;;
12900;SDS011;6518;50.930;5.344;2023-12-20T11:24:08;11.53;;;2.73;;
12900;SDS011;6518;50.930;5.344;2023-12-20T11:26:36;11.83;;;2.77;;
12900;SDS011;6518;50.930;5.344;2023-12-20T11:32:00;10.77;;;2.90;;
12900;SDS011;6518;50.930;5.344;2023-12-20T11:34:29;9.13;;;2.60;;
12900;SDS011;6518;50.930;5.344;2023-12-20T11:36:58;15.20;;;3.13;;
12900;SDS011;6518;50.930;5.344;2023-12-20T11:39:27;10.80;;;3.23;;
12900;SDS011;6518;50.930;5.344;2023-12-20T11:41:55;13.13;;;2.97;;
12900;SDS011;6518;50.930;5.344;2023-12-20T11:44:25;12.87;;;3.20;;
12900;SDS011;6518;50.930;5.344;2023-12-20T11:46:52;12.60;;;3.30;;
12900;SDS011;6518;50.930;5.344;2023-12-20T11:49:23;12.70;;;2.70;;
12900;SDS011;6518;50.930;5.344;2023-12-20T11:51:54;12.33;;;3.00;;
12900;SDS011;6518;50.930;5.344;2023-12-20T11:54:21;11.10;;;2.83;;
12900;SDS011;6518;50.930;5.344;2023-12-20T11:56:50;13.77;;;2.83;;
12900;SDS011;6518;50.930;5.344;2023-12-20T11:59:17;14.10;;;3.23;;
12900;SDS011;6518;50.930;5.344;2023-12-20T12:01:47;7.80;;;2.83;;
12900;SDS011;6518;50.930;5.344;2023-12-20T12:04:15;11.93;;;3.17;;
12900;SDS011;6518;50.930;5.344;2023-12-20T12:06:43;15.77;;;3.90;;
12900;SDS011;6518;50.930;5.344;2023-12-20T12:09:11;10.87;;;3.10;;
12900;SDS011;6518;50.930;5.344;2023-12-20T12:11:38;14.67;;;3.50;;
12900;SDS011;6518;50.930;5.344;2023-12-20T12:14:06;12.03;;;3.27;;
12900;SDS011;6518;50.930;5.344;2023-12-20T12:16:33;10.83;;;3.00;;
12900;SDS011;6518;50.930;5.344;2023-12-20T12:19:00;11.30;;;3.50;;
12900;SDS011;6518;50.930;5.344;2023-12-20T12:21:29;17.87;;;3.40;;
12900;SDS011;6518;50.930;5.344;2023-12-20T12:24:05;12.20;;;3.33;;
12900;SDS011;6518;50.930;5.344;2023-12-20T12:26:39;10.60;;;3.30;;
12900;SDS011;6518;50.930;5.344;2023-12-20T12:29:09;16.97;;;2.83;;
12900;SDS011;6518;50.930;5.344;2023-12-20T12:31:36;16.10;;;3.40;;
12900;SDS011;6518;50.930;5.344;2023-12-20T12:34:03;9.93;;;3.00;;
12900;SDS011;6518;50.930;5.344;2023-12-20T12:36:30;13.10;;;3.70;;
12900;SDS011;6518;50.930;5.344;2023-12-20T12:38:57;15.57;;;3.17;;
12900;SDS011;6518;50.930;5.344;2023-12-20T12:41:24;17.47;;;3.43;;
12900;SDS011;6518;50.930;5.344;2023-12-20T12:43:52;13.87;;;3.80;;
12900;SDS011;6518;50.930;5.344;2023-12-20T12:46:20;17.37;;;3.80;;
12900;SDS011;6518;50.930;5.344;2023-12-20T12:48:47;16.50;;;3.77;;
12900;SDS011;6518;50.930;5.344;2023-12-20T12:51:15;12.13;;;3.97;;
12900;SDS011;6518;50.930;5.344;2023-12-20T12:53:42;11.80;;;3.43;;
12900;SDS011;6518;50.930;5.344;2023-12-20T12:56:12;11.27;;;3.50;;
12900;SDS011;6518;50.930;5.344;2023-12-20T12:58:41;15.60;;;3.57;;
12900;SDS011;6518;50.930;5.344;2023-12-20T13:01:10;11.57;;;3.20;;
12900;SDS011;6518;50.930;5.344;2023-12-20T13:03:38;11.70;;;3.67;;
12900;SDS011;6518;50.930;5.344;2023-12-20T13:06:06;12.03;;;3.43;;
12900;SDS011;6518;50.930;5.344;2023-12-20T13:08:34;14.97;;;3.50;;
12900;SDS011;6518;50.930;5.344;2023-12-20T13:11:01;12.47;;;3.70;;
12900;SDS011;6518;50.930;5.344;2023-12-20T13:13:29;10.13;;;3.07;;
12900;SDS011;6518;50.930;5.344;2023-12-20T13:15:57;17.67;;;3.47;;
12900;SDS011;6518;50.930;5.344;2023-12-20T13:18:24;12.63;;;3.50;;
12900;SDS011;6518;50.930;5.344;2023-12-20T13:20:55;11.00;;;3.30;;
12900;SDS011;6518;50.930;5.344;2023-12-20T13:23:21;13.30;;;3.43;;
12900;SDS011;6518;50.930;5.344;2023-12-20T13:25:49;11.23;;;3.57;;
12900;SDS011;6518;50.930;5.344;2023-12-20T13:28:19;14.77;;;4.00;;
12900;SDS011;6518;50.930;5.344;2023-12-20T13:30:46;16.07;;;3.83;;
12900;SDS011;6518;50.930;5.344;2023-12-20T13:33:13;14.60;;;3.50;;
12900;SDS011;6518;50.930;5.344;2023-12-20T13:35:41;14.57;;;3.73;;
12900;SDS011;6518;50.930;5.344;2023-12-20T13:38:09;15.87;;;4.03;;
12900;SDS011;6518;50.930;5.344;2023-12-20T13:40:36;13.60;;;3.67;;
12900;SDS011;6518;50.930;5.344;2023-12-20T13:43:03;13.07;;;3.53;;
12900;SDS011;6518;50.930;5.344;2023-12-20T13:45:31;16.73;;;3.53;;
12900;SDS011;6518;50.930;5.344;2023-12-20T13:47:58;13.33;;;3.70;;
12900;SDS011;6518;50.930;5.344;2023-12-20T13:50:25;10.97;;;3.47;;
12900;SDS011;6518;50.930;5.344;2023-12-20T13:52:52;13.70;;;3.93;;
12900;SDS011;6518;50.930;5.344;2023-12-20T13:55:20;11.00;;;3.30;;
12900;SDS011;6518;50.930;5.344;2023-12-20T13:57:50;17.67;;;4.20;;
12900;SDS011;6518;50.930;5.344;2023-12-20T14:00:17;12.67;;;3.50;;
12900;SDS011;6518;50.930;5.344;2023-12-20T14:02:44;13.00;;;4.33;;
12900;SDS011;6518;50.930;5.344;2023-12-20T14:05:11;16.87;;;4.80;;
12900;SDS011;6518;50.930;5.344;2023-12-20T14:07:39;12.27;;;4.20;;
12900;SDS011;6518;50.930;5.344;2023-12-20T14:10:10;15.60;;;3.97;;
12900;SDS011;6518;50.930;5.344;2023-12-20T14:12:40;10.60;;;3.60;;
12900;SDS011;6518;50.930;5.344;2023-12-20T14:15:07;16.00;;;4.13;;
12900;SDS011;6518;50.930;5.344;2023-12-20T14:17:36;13.77;;;4.07;;
12900;SDS011;6518;50.930;5.344;2023-12-20T14:20:03;12.63;;;3.47;;
12900;SDS011;6518;50.930;5.344;2023-12-20T14:22:32;12.67;;;4.03;;
12900;SDS011;6518;50.930;5.344;2023-12-20T14:25:02;14.10;;;3.93;;
12900;SDS011;6518;50.930;5.344;2023-12-20T14:27:31;14.93;;;3.93;;
12900;SDS011;6518;50.930;5.344;2023-12-20T14:30:06;11.50;;;3.77;;
12900;SDS011;6518;50.930;5.344;2023-12-20T14:32:34;12.23;;;3.50;;
12900;SDS011;6518;50.930;5.344;2023-12-20T14:35:03;13.27;;;4.00;;
12900;SDS011;6518;50.930;5.344;2023-12-20T14:37:31;12.87;;;3.63;;
12900;SDS011;6518;50.930;5.344;2023-12-20T14:39:58;19.70;;;4.13;;
12900;SDS011;6518;50.930;5.344;2023-12-20T14:42:25;16.27;;;3.67;;
12900;SDS011;6518;50.930;5.344;2023-12-20T14:44:53;15.23;;;3.67;;
12900;SDS011;6518;50.930;5.344;2023-12-20T14:47:21;12.67;;;3.90;;
12900;SDS011;6518;50.930;5.344;2023-12-20T14:49:50;13.60;;;4.20;;
12900;SDS011;6518;50.930;5.344;2023-12-20T14:52:17;11.73;;;3.40;;
12900;SDS011;6518;50.930;5.344;2023-12-20T14:54:44;12.37;;;3.73;;